createdAt,value
2018-11-20T00:05:15.163Z,53.50
2018-11-20T00:10:56.788Z,53.40
2018-11-20T00:16:29.583Z,53.40
2018-11-20T00:22:05.246Z,53.30
2018-11-20T00:27:35.874Z,53.30
2018-11-20T00:33:02.777Z,53.20
2018-11-20T00:38:35.393Z,53.30
2018-11-20T00:43:57.553Z,53.10
2018-11-20T00:49:35.983Z,53.10
2018-11-20T00:54:59.199Z,53.10
2018-11-20T01:00:14.299Z,53.00
2018-11-20T01:05:36.737Z,53.00
2018-11-20T01:10:59.183Z,52.90
2018-11-20T01:16:21.331Z,52.90
2018-11-20T01:21:44.965Z,52.90
2018-11-20T01:27:08.609Z,53.50
2018-11-20T01:32:39.328Z,53.40
2018-11-20T01:38:02.965Z,52.80
2018-11-20T01:43:38.602Z,52.70
2018-11-20T01:49:00.860Z,52.80
2018-11-20T01:54:21.562Z,52.80
2018-11-20T01:59:43.836Z,52.80
2018-11-20T02:05:07.638Z,52.80
2018-11-20T02:16:43.064Z,52.70
2018-11-20T02:28:45.117Z,52.70
2018-11-20T02:34:13.114Z,52.70
2018-11-20T02:39:19.141Z,52.70
2018-11-20T02:55:13.995Z,52.70
2018-11-20T03:06:27.967Z,53.00
2018-11-20T03:11:37.367Z,52.80
2018-11-20T03:22:42.091Z,52.80
2018-11-20T03:44:05.177Z,52.90
2018-11-20T03:54:28.111Z,52.90
2018-11-20T03:59:33.427Z,52.90
2018-11-20T04:05:04.282Z,52.90
2018-11-20T04:10:28.023Z,52.90
2018-11-20T04:16:04.069Z,52.90
2018-11-20T04:21:30.815Z,52.90
2018-11-20T04:26:43.786Z,53.00
2018-11-20T04:32:14.259Z,52.90
2018-11-20T04:37:38.634Z,52.90
2018-11-20T04:43:15.743Z,52.90
2018-11-20T04:48:36.737Z,52.90
2018-11-20T04:54:03.305Z,52.90
2018-11-20T05:04:12.721Z,52.90
2018-11-20T05:09:49.865Z,52.80
2018-11-20T05:15:14.590Z,52.80
2018-11-20T05:20:35.121Z,52.80
2018-11-20T05:25:57.642Z,52.80
2018-11-20T05:31:24.278Z,52.90
2018-11-20T05:42:10.013Z,52.80
2018-11-20T05:47:32.733Z,52.70
2018-11-20T05:53:02.235Z,52.80
2018-11-20T05:58:28.487Z,52.70
2018-11-20T06:04:07.189Z,52.70
2018-11-20T06:09:42.909Z,52.70
2018-11-20T06:15:05.093Z,52.70
2018-11-20T06:20:18.145Z,52.70
2018-11-20T06:25:41.900Z,52.60
2018-11-20T06:31:00.849Z,52.70
2018-11-20T06:36:39.631Z,52.70
2018-11-20T06:42:06.326Z,52.60
2018-11-20T06:47:28.511Z,52.60
2018-11-20T06:53:01.381Z,52.60
2018-11-20T06:58:23.621Z,53.10
2018-11-20T07:03:47.311Z,52.60
2018-11-20T07:09:16.861Z,52.60
2018-11-20T07:14:42.424Z,52.60
2018-11-20T07:20:11.929Z,52.60
2018-11-20T07:25:47.693Z,52.60
2018-11-20T07:31:12.562Z,52.60
2018-11-20T07:36:51.098Z,52.60
2018-11-20T07:42:15.207Z,52.60
2018-11-20T07:47:39.245Z,52.60
2018-11-20T07:53:03.231Z,52.60
2018-11-20T07:58:40.938Z,52.60
2018-11-20T08:04:11.345Z,52.60
2018-11-20T08:09:38.668Z,52.70
2018-11-20T08:15:18.518Z,52.70
2018-11-20T08:20:46.891Z,52.60
2018-11-20T08:26:26.166Z,52.60
2018-11-20T08:32:01.852Z,52.60
2018-11-20T08:37:14.853Z,52.60
2018-11-20T08:42:34.116Z,52.60
2018-11-20T08:47:56.725Z,52.70
2018-11-20T08:53:23.153Z,52.60
2018-11-20T08:58:46.862Z,52.60
2018-11-20T09:04:25.884Z,52.60
2018-11-20T09:09:48.196Z,52.60
2018-11-20T09:15:20.926Z,52.60
2018-11-20T09:20:59.586Z,52.60
2018-11-20T09:26:26.174Z,52.60
2018-11-20T09:31:49.562Z,52.60
2018-11-20T09:37:23.278Z,52.60
2018-11-20T09:42:40.272Z,52.60
2018-11-20T09:48:30.441Z,52.60
2018-11-20T09:54:20.333Z,52.60
2018-11-20T09:59:42.657Z,52.60
2018-11-20T10:04:58.307Z,52.60
2018-11-20T10:10:20.874Z,52.60
2018-11-20T10:15:43.249Z,52.60
2018-11-20T10:21:12.980Z,52.60
2018-11-20T10:26:36.342Z,52.60
2018-11-20T10:32:01.346Z,52.50
2018-11-20T10:37:15.400Z,52.50
2018-11-20T10:42:45.551Z,52.60
2018-11-20T10:48:07.806Z,52.70
2018-11-20T10:53:31.613Z,52.60
2018-11-20T10:58:57.785Z,52.60
2018-11-20T11:04:30.350Z,52.50
2018-11-20T11:10:02.814Z,52.50
2018-11-20T11:15:25.752Z,52.60
2018-11-20T11:20:49.524Z,52.60
2018-11-20T11:26:31.227Z,52.70
2018-11-20T11:31:52.526Z,52.70
2018-11-20T11:37:18.369Z,52.60
2018-11-20T11:42:43.382Z,52.60
2018-11-20T11:48:09.614Z,52.60
2018-11-20T11:53:31.405Z,52.60
2018-11-20T11:58:47.972Z,52.60
2018-11-20T12:04:17.463Z,52.50
2018-11-20T12:09:41.625Z,52.50
2018-11-20T12:15:04.045Z,52.50
2018-11-20T12:20:26.343Z,52.60
2018-11-20T12:25:47.824Z,52.60
2018-11-20T12:31:11.820Z,52.60
2018-11-20T12:36:32.812Z,52.60
2018-11-20T12:42:07.967Z,52.60
2018-11-20T12:47:29.252Z,52.60
2018-11-20T12:52:51.747Z,52.60
2018-11-20T12:58:15.469Z,52.60
2018-11-20T13:03:54.251Z,52.60
2018-11-20T13:09:17.758Z,53.30
2018-11-20T13:14:46.311Z,52.60
2018-11-20T13:20:14.942Z,52.60
2018-11-20T13:25:41.523Z,52.60
2018-11-20T13:31:20.556Z,52.60
2018-11-20T13:36:42.907Z,52.60
2018-11-20T13:42:03.855Z,52.60
2018-11-20T13:47:25.950Z,52.50
2018-11-20T13:52:49.620Z,52.60
2018-11-20T13:58:11.825Z,52.60
2018-11-20T14:03:28.716Z,52.60
2018-11-20T14:08:50.833Z,52.60
2018-11-20T14:14:25.616Z,52.60
2018-11-20T14:19:42.726Z,52.60
2018-11-20T14:25:10.252Z,52.60
2018-11-20T14:30:42.668Z,52.60
2018-11-20T14:36:18.557Z,52.60
2018-11-20T14:41:40.725Z,52.60
2018-11-20T14:47:02.957Z,52.50
2018-11-20T14:52:35.868Z,52.50
2018-11-20T14:57:58.119Z,52.60
2018-11-20T15:03:20.410Z,52.70
2018-11-20T15:08:54.572Z,52.60
2018-11-20T15:14:18.801Z,52.60
2018-11-20T15:19:41.132Z,52.70
2018-11-20T15:25:05.557Z,52.70
2018-11-20T15:30:44.155Z,52.70
2018-11-20T15:36:23.249Z,52.90
2018-11-20T15:41:50.168Z,52.90
2018-11-20T15:47:08.771Z,53.00
2018-11-20T15:52:44.802Z,53.00
2018-11-20T15:58:18.005Z,53.80
2018-11-20T16:03:45.164Z,53.30
2018-11-20T16:09:13.053Z,53.30
2018-11-20T16:14:37.991Z,53.40
2018-11-20T16:20:22.649Z,53.40
2018-11-20T16:25:47.009Z,53.50
2018-11-20T16:31:25.374Z,53.50
2018-11-20T16:36:49.348Z,53.50
2018-11-20T16:42:09.329Z,53.50
2018-11-20T16:47:39.416Z,53.50
2018-11-20T16:53:01.668Z,53.50
2018-11-20T16:58:41.537Z,53.50
2018-11-20T17:04:08.424Z,53.60
2018-11-20T17:09:35.935Z,53.50
2018-11-20T17:15:03.407Z,53.60
2018-11-20T17:20:27.838Z,53.60
2018-11-20T17:25:54.182Z,53.60
2018-11-20T17:31:20.946Z,53.60
2018-11-20T17:36:51.140Z,53.60
2018-11-20T17:42:16.179Z,53.60
2018-11-20T17:47:53.083Z,53.60
2018-11-20T17:53:12.274Z,53.60
2018-11-20T17:58:46.107Z,53.60
2018-11-20T18:06:16.248Z,53.70
2018-11-20T18:11:58.504Z,54.10
2018-11-20T18:17:33.262Z,53.90
2018-11-20T18:23:09.656Z,54.50
2018-11-20T18:28:25.776Z,53.90
2018-11-20T18:33:52.799Z,53.90
2018-11-20T18:39:17.864Z,53.90
2018-11-20T18:44:46.873Z,53.90
2018-11-20T18:50:11.408Z,53.90
2018-11-20T18:55:47.016Z,53.80
2018-11-20T19:01:06.562Z,53.90
2018-11-20T19:06:33.390Z,53.90
2018-11-20T19:12:07.685Z,54.00
2018-11-20T19:17:34.718Z,54.00
2018-11-20T19:23:19.133Z,53.90
2018-11-20T19:28:43.323Z,53.90
2018-11-20T19:34:12.749Z,53.90
2018-11-20T19:39:37.874Z,53.90
2018-11-20T19:45:00.177Z,53.90
2018-11-20T19:50:23.078Z,53.90
2018-11-20T19:55:55.673Z,53.90
2018-11-20T20:01:18.123Z,54.00
2018-11-20T20:06:41.941Z,53.90
2018-11-20T20:12:04.200Z,54.00
2018-11-20T20:17:26.341Z,54.00
2018-11-20T20:22:44.534Z,53.90
2018-11-20T20:28:08.285Z,54.00
2018-11-20T20:33:24.635Z,54.00
2018-11-20T20:39:03.218Z,54.00
2018-11-20T20:44:26.970Z,54.00
2018-11-20T20:49:43.346Z,54.00
2018-11-20T20:55:05.485Z,54.00
2018-11-20T21:00:41.030Z,54.10
2018-11-20T21:06:03.014Z,54.10
2018-11-20T21:11:19.570Z,54.10
2018-11-20T21:16:52.406Z,54.10
2018-11-20T21:22:27.966Z,54.10
2018-11-20T21:27:52.356Z,54.10
2018-11-20T21:33:36.735Z,54.10
2018-11-20T21:39:06.951Z,54.10
2018-11-20T21:44:12.576Z,54.10
2018-11-20T21:49:44.501Z,54.00
2018-11-20T21:55:19.330Z,54.00
2018-11-20T22:01:13.139Z,53.90
2018-11-20T22:06:57.669Z,54.00
2018-11-20T22:12:25.549Z,54.00
2018-11-20T22:17:48.436Z,53.90
2018-11-20T22:23:12.777Z,53.90
2018-11-20T22:28:48.138Z,53.90
2018-11-20T22:34:11.585Z,53.90
2018-11-20T22:39:51.485Z,53.80
2018-11-20T22:45:14.251Z,53.80
2018-11-20T22:50:20.689Z,53.80
2018-11-20T23:00:30.606Z,53.80
2018-11-20T23:05:53.137Z,53.80
2018-11-20T23:10:58.996Z,53.80
2018-11-20T23:16:10.289Z,53.80
2018-11-20T23:21:18.789Z,53.70
2018-11-20T23:26:28.739Z,53.80
2018-11-20T23:31:38.354Z,53.80
2018-11-20T23:36:46.285Z,53.70
2018-11-20T23:41:52.892Z,53.80
2018-11-20T23:52:02.707Z,53.80
2018-11-20T23:57:08.086Z,53.70
